Time;durP1;ratioP1;P1;durP2;ratioP2;P2;SDS_P1;SDS_P2;PMS_P1;PMS_P2;Temp;Humidity;BMP_temperature;BMP_pressure;BME280_temperature;BME280_humidity;BME280_pressure;Samples;Min_cycle;Max_cycle;Signal;HPM_P1;HPM_P2
2022/12/21 00:01:23;;;;;;;8.82;2.78;;;9.40;98.00;;;;;;5046508;28;20032;-68
2022/12/21 00:03:57;;;;;;;5.82;2.30;;;9.50;98.00;;;;;;5063112;28;20496;-69
2022/12/21 00:06:24;;;;;;;8.13;2.60;;;9.90;98.00;;;;;;5068111;28;20025;-70
2022/12/21 00:08:52;;;;;;;6.30;2.53;;;10.10;98.00;;;;;;5076357;28;20029;-70
2022/12/21 00:11:18;;;;;;;5.85;2.47;;;9.90;98.00;;;;;;5073767;28;20113;-70
2022/12/21 00:13:44;;;;;;;7.10;2.28;;;10.00;98.00;;;;;;5074304;28;20024;-69
2022/12/21 00:16:12;;;;;;;4.85;2.03;;;9.90;98.00;;;;;;5075745;28;20025;-70
2022/12/21 00:18:38;;;;;;;6.20;2.28;;;9.90;98.00;;;;;;5073667;28;20315;-70
2022/12/21 00:21:13;;;;;;;4.78;2.10;;;9.80;98.00;;;;;;5076148;28;20024;-69
2022/12/21 00:23:40;;;;;;;6.78;2.38;;;9.80;98.00;;;;;;5076987;28;20012;-70
2022/12/21 00:26:07;;;;;;;7.97;2.63;;;9.70;98.00;;;;;;5075099;28;20032;-70
2022/12/21 00:28:33;;;;;;;5.88;2.60;;;9.50;98.00;;;;;;5075415;28;20090;-71
2022/12/21 00:31:09;;;;;;;5.93;2.75;;;9.30;98.00;;;;;;5075604;28;20075;-69
2022/12/21 00:33:36;;;;;;;5.18;2.03;;;9.40;98.00;;;;;;5076580;28;20025;-71
2022/12/21 00:36:02;;;;;;;8.18;3.33;;;9.30;98.00;;;;;;5058206;28;20133;-71
2022/12/21 00:38:27;;;;;;;5.57;2.50;;;9.10;97.80;;;;;;5076629;28;20477;-71
2022/12/21 00:41:02;;;;;;;7.10;2.80;;;9.10;97.40;;;;;;5057243;28;20028;-71
2022/12/21 00:43:28;;;;;;;8.80;2.35;;;9.10;97.40;;;;;;5074942;28;20441;-72
2022/12/21 00:45:53;;;;;;;6.25;2.38;;;9.10;97.40;;;;;;5074948;28;20106;-71
2022/12/21 00:48:19;;;;;;;7.00;2.30;;;9.10;97.80;;;;;;5076261;28;20040;-72
2022/12/21 00:50:45;;;;;;;5.70;2.47;;;9.10;97.10;;;;;;5075276;28;20024;-72
2022/12/21 00:53:11;;;;;;;7.05;2.70;;;9.20;97.60;;;;;;5076179;28;20044;-72
2022/12/21 00:55:37;;;;;;;6.35;2.60;;;9.20;97.40;;;;;;5074114;28;20310;-72
2022/12/21 00:58:03;;;;;;;8.82;2.58;;;9.10;95.60;;;;;;5074723;28;20021;-72
2022/12/21 01:00:28;;;;;;;7.50;2.42;;;9.00;94.70;;;;;;5073512;28;20043;-72
2022/12/21 01:02:54;;;;;;;5.75;2.20;;;9.00;95.20;;;;;;5075086;28;20028;-72
2022/12/21 01:05:20;;;;;;;5.55;2.35;;;9.10;95.40;;;;;;5074242;28;20025;-72
2022/12/21 01:07:46;;;;;;;5.35;2.53;;;9.20;96.30;;;;;;5074962;28;20417;-71
2022/12/21 01:10:12;;;;;;;5.72;2.47;;;9.40;97.90;;;;;;5074084;28;20052;-72
2022/12/21 01:12:38;;;;;;;7.22;2.60;;;9.40;97.10;;;;;;5057327;28;20029;-71
2022/12/21 01:15:04;;;;;;;4.78;2.17;;;9.30;97.20;;;;;;5073472;28;20021;-71
2022/12/21 01:17:30;;;;;;;8.07;2.42;;;9.40;97.20;;;;;;5075729;28;20062;-73
2022/12/21 01:19:55;;;;;;;6.78;2.17;;;9.50;98.00;;;;;;5056267;28;20021;-73
2022/12/21 01:22:21;;;;;;;5.07;2.42;;;9.40;97.40;;;;;;5062132;28;20044;-73
2022/12/21 01:24:47;;;;;;;5.32;2.22;;;9.40;97.10;;;;;;5074883;28;20028;-72
2022/12/21 01:27:13;;;;;;;6.65;2.40;;;9.40;98.00;;;;;;5072881;28;20078;-72
2022/12/21 01:29:38;;;;;;;5.07;2.13;;;9.40;97.20;;;;;;5074401;28;20025;-72
2022/12/21 01:32:06;;;;;;;5.65;2.30;;;9.40;96.80;;;;;;5073516;28;20115;-71
2022/12/21 01:34:32;;;;;;;5.38;2.03;;;9.40;96.50;;;;;;5075487;28;20317;-72
2022/12/21 01:36:57;;;;;;;4.63;2.10;;;9.40;97.20;;;;;;5073653;28;20055;-72
2022/12/21 01:39:23;;;;;;;6.13;2.30;;;9.40;96.90;;;;;;5057706;28;20086;-72
2022/12/21 01:41:48;;;;;;;7.82;2.67;;;9.40;96.70;;;;;;5072900;28;20107;-71
2022/12/21 01:44:52;;;;;;;5.72;2.30;;;9.30;96.00;;;;;;5073962;28;20093;-71
2022/12/21 01:47:21;;;;;;;7.18;2.20;;;9.40;97.40;;;;;;5054588;28;20332;-72
2022/12/21 01:49:53;;;;;;;4.25;2.08;;;9.40;97.80;;;;;;5057543;28;20497;-71
2022/12/21 01:52:19;;;;;;;5.47;2.13;;;9.40;98.00;;;;;;5074530;28;20074;-71
2022/12/21 01:54:50;;;;;;;4.95;2.17;;;9.40;98.00;;;;;;5074757;28;20032;-71
2022/12/21 01:57:17;;;;;;;7.78;2.58;;;9.40;98.00;;;;;;5072881;28;20409;-71
2022/12/21 01:59:50;;;;;;;5.97;2.20;;;9.40;98.00;;;;;;5074202;28;20036;-70
2022/12/21 02:02:23;;;;;;;4.60;1.88;;;9.40;98.00;;;;;;5072071;28;20078;-71
2022/12/21 02:04:51;;;;;;;4.97;2.20;;;9.40;98.00;;;;;;5075234;28;20037;-71
2022/12/21 02:07:21;;;;;;;7.13;2.40;;;9.40;98.00;;;;;;5074441;28;20020;-70
2022/12/21 02:09:47;;;;;;;6.40;2.33;;;9.50;98.00;;;;;;5073223;28;20037;-71
2022/12/21 02:12:16;;;;;;;6.07;1.90;;;9.60;98.00;;;;;;5071978;28;20028;-70
2022/12/21 02:14:45;;;;;;;5.50;2.00;;;9.60;98.00;;;;;;5069027;28;20033;-71
2022/12/21 02:17:20;;;;;;;5.15;2.13;;;9.60;98.00;;;;;;5059582;28;20410;-70
2022/12/21 02:20:01;;;;;;;6.22;2.17;;;9.60;98.00;;;;;;5076617;28;20032;-71
2022/12/21 02:22:56;;;;;;;5.00;1.65;;;9.50;98.00;;;;;;5078493;28;20436;-71
2022/12/21 02:25:46;;;;;;;5.20;2.08;;;9.60;98.00;;;;;;5054837;28;20121;-71
2022/12/21 02:28:38;;;;;;;3.42;1.73;;;9.70;98.00;;;;;;5073156;28;20048;-71
2022/12/21 02:31:32;;;;;;;5.85;2.00;;;9.70;98.00;;;;;;5065227;28;20099;-71
2022/12/21 02:34:41;;;;;;;5.30;1.88;;;9.70;98.00;;;;;;5073051;28;20036;-71
2022/12/21 02:37:45;;;;;;;5.38;2.08;;;9.70;98.00;;;;;;5077808;28;20020;-71
2022/12/21 02:40:43;;;;;;;4.22;1.90;;;9.60;98.00;;;;;;4990312;28;20077;-71
2022/12/21 02:46:16;;;;;;;4.75;1.73;;;9.50;97.30;;;;;;5078339;28;20451;-71
2022/12/21 02:48:57;;;;;;;;;;;9.40;96.40;;;;;;5059944;28;20429;-72
2022/12/21 02:51:31;;;;;;;6.00;1.98;;;9.40;96.60;;;;;;5077425;28;19916;-72
2022/12/21 02:53:57;;;;;;;4.78;1.88;;;9.40;96.00;;;;;;5078065;28;20689;-72
2022/12/21 02:56:22;;;;;;;4.28;1.60;;;9.30;94.80;;;;;;5075510;28;20317;-72
2022/12/21 02:58:48;;;;;;;4.18;1.70;;;9.40;95.30;;;;;;5074117;28;20031;-72
2022/12/21 03:01:38;;;;;;;3.00;1.33;;;9.40;94.60;;;;;;5077503;28;20336;-71
2022/12/21 03:04:31;;;;;;;3.33;1.70;;;9.40;95.60;;;;;;5065068;28;20049;-71
2022/12/21 03:07:20;;;;;;;3.35;1.58;;;9.50;95.50;;;;;;5073206;28;20025;-71
2022/12/21 03:09:57;;;;;;;4.22;1.55;;;9.40;94.60;;;;;;5077948;28;20017;-72
2022/12/21 03:12:44;;;;;;;6.50;1.65;;;9.50;96.00;;;;;;5076358;28;20024;-72
2022/12/21 03:15:12;;;;;;;3.25;1.55;;;9.50;95.30;;;;;;5075129;28;20028;-71
2022/12/21 03:17:56;;;;;;;3.15;1.40;;;9.50;96.00;;;;;;5077306;28;20025;-72
2022/12/21 03:20:43;;;;;;;3.75;1.45;;;9.40;95.60;;;;;;5078050;28;20104;-71
2022/12/21 03:23:17;;;;;;;4.40;1.50;;;9.50;97.30;;;;;;5070784;28;20024;-71
2022/12/21 03:25:47;;;;;;;;;;;9.50;95.60;;;;;;5059097;28;20487;-71
2022/12/21 03:28:20;;;;;;;5.35;1.67;;;9.50;96.10;;;;;;5074671;28;19961;-71
2022/12/21 03:30:51;;;;;;;3.00;1.30;;;9.50;97.00;;;;;;5070926;28;20043;-71
2022/12/21 03:33:21;;;;;;;3.50;1.65;;;9.50;97.30;;;;;;5075710;28;20059;-71
2022/12/21 03:35:51;;;;;;;4.68;1.45;;;9.50;97.00;;;;;;5077276;28;20027;-71
2022/12/21 03:38:31;;;;;;;4.95;1.60;;;9.60;97.20;;;;;;5074903;28;20036;-71
2022/12/21 03:41:00;;;;;;;4.88;1.70;;;9.60;96.90;;;;;;5059852;28;20413;-71
2022/12/21 03:43:30;;;;;;;4.15;1.77;;;9.60;97.30;;;;;;5074572;28;20085;-71
2022/12/21 03:46:22;;;;;;;5.15;1.60;;;9.60;98.00;;;;;;5077261;28;20044;-71
2022/12/21 03:48:56;;;;;;;4.05;1.45;;;9.60;97.60;;;;;;5049765;28;20367;-71
2022/12/21 03:51:41;;;;;;;6.72;1.58;;;9.60;98.00;;;;;;5077112;28;20107;-71
2022/12/21 03:54:07;;;;;;;3.45;1.42;;;9.70;98.00;;;;;;5072873;28;20019;-71
2022/12/21 03:56:37;;;;;;;4.03;1.50;;;9.80;98.00;;;;;;5075265;28;20329;-71
2022/12/21 03:59:04;;;;;;;3.45;1.27;;;9.90;98.00;;;;;;5074563;28;20043;-71
2022/12/21 04:01:44;;;;;;;3.20;1.20;;;9.80;98.00;;;;;;5076082;28;20028;-71
2022/12/21 04:04:39;;;;;;;2.60;1.15;;;9.90;98.00;;;;;;5077049;28;20094;-70
2022/12/21 04:07:07;;;;;;;4.68;1.95;;;10.00;98.00;;;;;;5074149;28;20052;-70
2022/12/21 04:09:33;;;;;;;2.50;1.30;;;9.90;98.00;;;;;;5076765;28;20043;-70
2022/12/21 04:14:43;;;;;;;;;;;10.10;98.00;;;;;;5076111;28;20436;-72
2022/12/21 04:17:15;;;;;;;3.15;1.55;;;10.00;98.00;;;;;;5075071;28;19908;-72
2022/12/21 04:19:58;;;;;;;5.55;1.42;;;10.00;98.00;;;;;;5076687;28;20030;-71
2022/12/21 04:28:09;;;;;;;3.17;1.27;;;9.90;98.00;;;;;;5075732;28;20081;-70
2022/12/21 04:30:37;;;;;;;4.78;1.48;;;10.00;98.00;;;;;;5075411;28;20025;-71
2022/12/21 04:33:03;;;;;;;2.88;1.20;;;10.00;98.00;;;;;;5076421;28;20031;-71
2022/12/21 04:35:29;;;;;;;2.97;1.30;;;10.10;98.00;;;;;;5076214;28;20031;-71
2022/12/21 04:37:57;;;;;;;3.30;1.50;;;10.10;98.00;;;;;;5075694;28;20029;-71
2022/12/21 04:40:23;;;;;;;4.75;1.70;;;10.00;98.00;;;;;;5076144;28;20025;-71
2022/12/21 04:42:48;;;;;;;3.05;1.40;;;10.10;98.00;;;;;;5073576;28;20024;-71
2022/12/21 04:45:17;;;;;;;3.15;1.40;;;10.10;98.00;;;;;;5075089;28;20082;-71
2022/12/21 04:47:43;;;;;;;3.63;1.75;;;10.20;98.00;;;;;;5074196;28;20032;-71
2022/12/21 04:50:09;;;;;;;3.88;1.50;;;10.20;98.00;;;;;;5058237;28;20119;-69
2022/12/21 04:52:35;;;;;;;2.22;1.15;;;10.30;98.00;;;;;;5074077;28;20082;-69
2022/12/21 04:55:02;;;;;;;3.20;1.20;;;10.30;98.00;;;;;;5076273;28;20028;-70
2022/12/21 04:57:31;;;;;;;4.70;1.60;;;10.30;98.00;;;;;;5072649;28;20050;-71
2022/12/21 04:59:57;;;;;;;4.25;1.60;;;10.20;98.00;;;;;;5074934;28;20333;-71
2022/12/21 05:02:23;;;;;;;2.63;1.30;;;10.20;98.00;;;;;;5073773;28;20024;-70
2022/12/21 05:04:48;;;;;;;3.60;1.60;;;10.20;98.00;;;;;;5075413;28;20036;-71
2022/12/21 05:07:14;;;;;;;3.10;1.60;;;10.10;98.00;;;;;;5074111;28;20020;-71
2022/12/21 05:09:39;;;;;;;2.75;1.30;;;10.10;98.00;;;;;;5075785;28;20032;-71
2022/12/21 05:12:05;;;;;;;3.53;1.40;;;10.00;98.00;;;;;;5072881;28;20384;-71
2022/12/21 05:14:31;;;;;;;3.03;1.30;;;10.00;98.00;;;;;;5074435;28;20024;-71
2022/12/21 05:16:56;;;;;;;2.72;1.33;;;10.10;98.00;;;;;;5075113;28;20090;-71
2022/12/21 05:19:23;;;;;;;2.03;1.13;;;10.10;98.00;;;;;;5075743;28;20028;-71
2022/12/21 05:21:49;;;;;;;4.18;1.23;;;10.10;98.00;;;;;;5075162;28;20034;-71
2022/12/21 05:24:15;;;;;;;3.00;1.20;;;10.20;98.00;;;;;;5074272;28;20119;-71
2022/12/21 05:26:40;;;;;;;3.45;1.30;;;10.20;98.00;;;;;;5072351;28;20039;-71
2022/12/21 05:29:06;;;;;;;3.97;1.35;;;10.10;98.00;;;;;;5074276;28;20073;-72
2022/12/21 05:31:31;;;;;;;4.30;1.42;;;10.10;98.00;;;;;;5073896;28;20439;-70
2022/12/21 05:33:57;;;;;;;3.00;1.58;;;10.10;98.00;;;;;;5075508;28;20305;-71
2022/12/21 05:36:23;;;;;;;4.35;1.40;;;10.10;98.00;;;;;;5073593;28;20021;-71
2022/12/21 05:38:48;;;;;;;2.35;1.10;;;10.10;98.00;;;;;;5075185;28;20028;-71
2022/12/21 05:41:16;;;;;;;3.70;1.30;;;10.10;98.00;;;;;;5072899;28;20025;-71
2022/12/21 05:43:41;;;;;;;3.35;1.42;;;10.10;98.00;;;;;;5074316;28;20029;-71
2022/12/21 05:46:10;;;;;;;6.15;1.70;;;10.00;98.00;;;;;;5056898;28;20032;-71
2022/12/21 05:48:36;;;;;;;3.28;1.23;;;9.90;98.00;;;;;;5080503;28;20432;-71
2022/12/21 05:51:10;;;;;;;3.33;1.70;;;9.80;98.00;;;;;;5080992;28;20460;-71
2022/12/21 05:53:39;;;;;;;3.10;1.40;;;9.90;98.00;;;;;;5081878;28;20367;-71
2022/12/21 05:56:04;;;;;;;3.30;1.50;;;9.80;98.00;;;;;;5078089;28;20052;-72
2022/12/21 05:58:30;;;;;;;4.82;1.25;;;9.80;98.00;;;;;;5080092;28;20067;-71
2022/12/21 06:01:01;;;;;;;4.15;1.60;;;9.80;98.00;;;;;;5078529;28;20056;-71
2022/12/21 06:03:26;;;;;;;3.75;1.42;;;9.90;98.00;;;;;;5060851;28;20337;-71
2022/12/21 06:05:52;;;;;;;3.33;1.45;;;9.90;98.00;;;;;;5079703;28;20111;-71
2022/12/21 06:08:17;;;;;;;4.70;1.40;;;9.90;98.00;;;;;;5081932;28;20036;-71
2022/12/21 06:10:46;;;;;;;3.92;1.30;;;9.90;98.00;;;;;;5079800;28;20325;-71
2022/12/21 06:13:11;;;;;;;4.75;1.55;;;9.90;98.00;;;;;;5078228;28;20054;-71
2022/12/21 06:15:37;;;;;;;3.80;1.70;;;9.90;98.00;;;;;;5080003;28;20409;-71
2022/12/21 06:18:04;;;;;;;3.30;1.40;;;9.90;98.00;;;;;;5080417;28;20024;-71
2022/12/21 06:20:30;;;;;;;3.95;1.45;;;10.00;98.00;;;;;;5079702;28;20048;-71
2022/12/21 06:22:56;;;;;;;4.63;1.40;;;10.10;98.00;;;;;;5081507;28;20119;-71
2022/12/21 06:25:22;;;;;;;2.90;1.30;;;10.10;98.00;;;;;;5059701;28;20451;-70
2022/12/21 06:27:47;;;;;;;7.30;2.40;;;10.10;98.00;;;;;;5078552;28;20464;-71
2022/12/21 06:30:17;;;;;;;3.83;1.30;;;10.10;98.00;;;;;;5063007;28;20146;-71
2022/12/21 06:32:42;;;;;;;4.18;1.75;;;10.10;98.00;;;;;;5079300;28;20032;-70
2022/12/21 06:35:08;;;;;;;4.20;1.80;;;10.10;98.00;;;;;;5061235;28;20294;-71
2022/12/21 06:37:34;;;;;;;3.40;1.25;;;10.20;98.00;;;;;;5080501;28;20024;-71
2022/12/21 06:39:59;;;;;;;3.08;1.33;;;10.30;98.00;;;;;;5062058;28;20107;-71
2022/12/21 06:42:25;;;;;;;2.78;1.10;;;10.20;98.00;;;;;;5077152;28;20021;-70
2022/12/21 06:44:50;;;;;;;3.75;1.30;;;10.30;98.00;;;;;;5078334;28;20049;-70
2022/12/21 06:47:16;;;;;;;4.90;1.38;;;10.30;98.00;;;;;;5079543;28;20020;-71
2022/12/21 06:49:45;;;;;;;3.83;1.27;;;10.20;98.00;;;;;;5063207;28;20078;-71
2022/12/21 06:52:10;;;;;;;1.67;1.00;;;10.10;98.00;;;;;;5081342;28;20074;-71
2022/12/21 06:54:36;;;;;;;4.07;1.17;;;10.00;98.00;;;;;;5080027;28;20025;-71
2022/12/21 06:57:01;;;;;;;3.00;1.30;;;9.90;98.00;;;;;;5080983;28;20127;-71
2022/12/21 06:59:27;;;;;;;4.70;1.67;;;9.80;98.00;;;;;;5077363;28;20028;-70
2022/12/21 07:01:53;;;;;;;5.13;2.05;;;9.80;98.00;;;;;;5077736;28;20520;-71
2022/12/21 07:04:19;;;;;;;5.45;2.80;;;9.70;98.00;;;;;;5078074;28;20016;-71
2022/12/21 07:06:44;;;;;;;4.85;2.17;;;9.70;98.00;;;;;;5078249;28;20311;-72
2022/12/21 07:09:13;;;;;;;4.30;1.48;;;9.60;98.00;;;;;;5078314;28;20102;-72
2022/12/21 07:11:39;;;;;;;4.55;2.00;;;9.60;98.00;;;;;;5076223;28;20036;-72
2022/12/21 07:14:04;;;;;;;5.07;2.15;;;9.50;98.00;;;;;;5076764;28;20077;-72
2022/12/21 07:16:30;;;;;;;4.28;1.70;;;9.50;98.00;;;;;;5078010;28;20028;-72
2022/12/21 07:18:58;;;;;;;4.45;1.75;;;9.40;98.00;;;;;;5057087;28;20044;-71
2022/12/21 07:21:24;;;;;;;4.20;1.50;;;9.50;98.00;;;;;;5077705;28;20028;-71
2022/12/21 07:23:50;;;;;;;4.72;1.75;;;9.40;98.00;;;;;;5077863;28;20409;-71
2022/12/21 07:26:18;;;;;;;4.65;2.15;;;9.40;98.00;;;;;;5075536;28;20028;-70
2022/12/21 07:28:43;;;;;;;3.95;1.80;;;9.40;98.00;;;;;;5076564;28;20395;-70
2022/12/21 07:31:11;;;;;;;3.50;1.55;;;9.30;98.00;;;;;;5057626;28;20036;-71
2022/12/21 07:33:38;;;;;;;4.00;1.60;;;9.30;98.00;;;;;;5077519;28;20032;-70
2022/12/21 07:36:05;;;;;;;4.85;1.88;;;9.30;98.00;;;;;;5075610;28;20029;-71
2022/12/21 07:38:34;;;;;;;6.68;1.77;;;9.30;98.00;;;;;;5075991;28;20475;-70
2022/12/21 07:41:01;;;;;;;20.92;12.95;;;9.20;98.00;;;;;;5074201;28;20367;-71
2022/12/21 07:43:28;;;;;;;4.50;1.70;;;9.20;98.00;;;;;;5074616;28;20064;-71
2022/12/21 07:45:53;;;;;;;4.03;1.63;;;9.20;98.00;;;;;;5075047;28;20044;-71
2022/12/21 07:48:19;;;;;;;5.53;1.90;;;9.20;98.00;;;;;;5059795;28;20032;-71
2022/12/21 07:50:47;;;;;;;4.15;1.63;;;9.20;98.00;;;;;;5075412;28;20070;-71
2022/12/21 07:53:12;;;;;;;7.55;2.17;;;9.20;98.00;;;;;;5077533;28;20439;-71
2022/12/21 07:55:38;;;;;;;5.72;1.90;;;9.20;98.00;;;;;;5073765;28;20044;-70
2022/12/21 07:58:03;;;;;;;4.85;2.03;;;9.20;98.00;;;;;;5069982;28;20028;-71
2022/12/21 08:00:29;;;;;;;4.60;1.70;;;9.30;98.00;;;;;;5072851;28;20032;-71
2022/12/21 08:02:54;;;;;;;10.90;4.18;;;9.30;98.00;;;;;;5073419;28;20027;-71
2022/12/21 08:05:21;;;;;;;19.08;11.88;;;9.30;98.00;;;;;;5058076;28;20413;-71
2022/12/21 08:07:47;;;;;;;19.20;11.35;;;9.30;98.00;;;;;;5075044;28;20330;-71
2022/12/21 08:10:13;;;;;;;41.40;32.17;;;9.30;98.00;;;;;;5072830;28;20036;-71
2022/12/21 08:12:39;;;;;;;5.10;2.95;;;9.40;98.00;;;;;;5066089;28;20036;-71
2022/12/21 08:15:08;;;;;;;4.03;1.67;;;9.40;98.00;;;;;;5070610;28;20070;-70
2022/12/21 08:17:33;;;;;;;4.22;1.70;;;9.40;98.00;;;;;;5075773;28;20032;-70
2022/12/21 08:19:59;;;;;;;3.33;1.60;;;9.40;98.00;;;;;;5071441;28;20032;-72
2022/12/21 08:22:25;;;;;;;4.70;1.77;;;9.40;98.00;;;;;;5076994;28;20032;-71
2022/12/21 08:24:50;;;;;;;4.10;2.13;;;9.30;98.00;;;;;;5071272;28;20028;-71
2022/12/21 08:27:16;;;;;;;5.70;2.00;;;9.20;98.00;;;;;;5073603;28;20119;-71
2022/12/21 08:29:41;;;;;;;2.72;1.58;;;9.20;98.00;;;;;;5070462;28;20070;-72
2022/12/21 08:32:07;;;;;;;5.75;3.35;;;9.20;98.00;;;;;;5069627;28;20039;-72
2022/12/21 08:34:33;;;;;;;4.72;2.20;;;9.10;98.00;;;;;;5075358;28;20112;-71
2022/12/21 08:36:58;;;;;;;4.60;2.17;;;9.00;98.00;;;;;;5074982;28;20169;-72
2022/12/21 08:39:24;;;;;;;5.30;1.90;;;9.00;97.60;;;;;;5073266;28;20491;-72
2022/12/21 08:41:49;;;;;;;3.08;1.65;;;9.00;97.70;;;;;;5075956;28;20372;-72
2022/12/21 08:44:15;;;;;;;8.90;2.03;;;8.90;96.90;;;;;;5071221;28;20045;-71
2022/12/21 08:46:41;;;;;;;3.72;1.40;;;8.90;96.60;;;;;;5073646;28;20036;-72
2022/12/21 08:49:07;;;;;;;4.95;1.92;;;8.90;96.80;;;;;;5058121;28;20347;-72
2022/12/21 08:51:33;;;;;;;3.53;1.70;;;8.90;95.40;;;;;;5074292;28;20429;-72
2022/12/21 08:53:58;;;;;;;3.50;1.70;;;8.90;95.50;;;;;;5067291;28;20021;-72
2022/12/21 08:56:24;;;;;;;4.50;1.75;;;8.80;95.90;;;;;;5072643;28;20028;-72
2022/12/21 08:58:50;;;;;;;6.53;2.20;;;8.80;95.10;;;;;;5075109;28;20028;-72
2022/12/21 09:01:23;;;;;;;4.57;1.70;;;8.80;95.40;;;;;;5074272;28;20020;-73
2022/12/21 09:03:49;;;;;;;4.13;1.65;;;8.80;95.20;;;;;;5057074;28;20326;-72
2022/12/21 09:06:14;;;;;;;3.30;1.67;;;8.90;94.90;;;;;;5068430;28;20023;-73
2022/12/21 09:08:40;;;;;;;3.80;1.77;;;8.90;94.40;;;;;;5074090;28;20118;-73
2022/12/21 09:11:09;;;;;;;4.95;1.55;;;8.80;93.30;;;;;;5068506;28;20324;-73
2022/12/21 09:13:38;;;;;;;3.42;1.58;;;8.80;92.50;;;;;;5073168;28;20057;-72
2022/12/21 09:16:13;;;;;;;5.55;1.60;;;8.70;93.10;;;;;;5072773;28;20296;-72
2022/12/21 09:22:02;;;;;;;4.10;1.50;;;8.80;91.70;;;;;;5065674;28;20027;-71
2022/12/21 09:24:28;;;;;;;4.25;1.80;;;8.80;91.60;;;;;;5070659;28;20082;-72
2022/12/21 09:26:54;;;;;;;3.28;1.67;;;8.80;90.90;;;;;;5068987;28;20020;-72
2022/12/21 09:29:23;;;;;;;2.97;1.50;;;8.80;91.30;;;;;;5072529;28;20035;-71
2022/12/21 09:31:50;;;;;;;2.67;1.25;;;8.80;92.50;;;;;;5057253;28;20437;-73
2022/12/21 09:34:17;;;;;;;2.00;1.10;;;8.90;93.40;;;;;;5055758;28;20068;-71
2022/12/21 09:36:43;;;;;;;2.70;1.40;;;9.00;93.30;;;;;;5073681;28;20029;-72
2022/12/21 09:39:09;;;;;;;3.55;1.35;;;9.00;93.70;;;;;;5055360;28;20107;-71
2022/12/21 09:41:48;;;;;;;2.92;1.70;;;9.00;93.40;;;;;;5075330;28;20369;-71
2022/12/21 09:44:32;;;;;;;3.25;1.42;;;9.00;92.90;;;;;;5074881;28;20048;-71
2022/12/21 09:47:04;;;;;;;3.23;1.30;;;9.00;93.40;;;;;;5057436;28;20047;-71
2022/12/21 09:49:44;;;;;;;3.75;1.60;;;9.10;94.30;;;;;;5050298;28;20584;-71
2022/12/21 09:52:19;;;;;;;3.10;1.75;;;9.00;93.20;;;;;;5057683;28;20321;-71
2022/12/21 09:54:58;;;;;;;3.53;1.63;;;9.10;92.90;;;;;;5043082;28;20314;-71
2022/12/21 09:57:28;;;;;;;4.80;2.03;;;9.10;92.30;;;;;;5040449;28;20074;-70
2022/12/21 09:59:54;;;;;;;4.45;1.83;;;9.10;91.90;;;;;;5060698;28;20031;-71
2022/12/21 10:02:48;;;;;;;2.97;1.40;;;9.10;91.50;;;;;;5059699;28;20079;-72
2022/12/21 10:05:50;;;;;;;3.53;1.63;;;9.10;92.60;;;;;;5060728;28;20028;-72
2022/12/21 10:08:27;;;;;;;2.53;1.13;;;9.20;93.20;;;;;;5072348;28;20025;-71
2022/12/21 10:11:08;;;;;;;2.20;1.20;;;9.30;95.30;;;;;;5071780;28;20719;-71
2022/12/21 10:13:44;;;;;;;2.85;1.40;;;9.40;95.50;;;;;;5057423;28;20063;-71
2022/12/21 10:16:17;;;;;;;2.45;1.08;;;9.40;95.00;;;;;;5049038;28;20020;-70
2022/12/21 10:18:51;;;;;;;2.80;1.17;;;9.40;95.00;;;;;;5055545;28;20020;-71
2022/12/21 10:21:25;;;;;;;1.58;0.90;;;9.50;96.80;;;;;;5067586;28;20040;-71
2022/12/21 10:23:54;;;;;;;2.08;0.95;;;9.50;98.00;;;;;;5043069;28;20063;-72
2022/12/21 10:26:26;;;;;;;1.83;1.00;;;9.60;98.00;;;;;;5079462;28;20016;-71
2022/12/21 10:29:13;;;;;;;2.40;1.10;;;9.60;98.00;;;;;;5081786;28;20028;-71
2022/12/21 10:31:45;;;;;;;2.28;0.80;;;9.70;98.00;;;;;;5074088;28;20016;-71
2022/12/21 10:34:34;;;;;;;3.72;1.10;;;9.80;98.00;;;;;;5074347;28;20312;-71
2022/12/21 10:37:09;;;;;;;3.30;1.00;;;9.90;98.00;;;;;;5075958;28;20029;-71
2022/12/21 10:39:35;;;;;;;1.60;0.80;;;9.90;98.00;;;;;;5059315;28;20028;-71
2022/12/21 10:42:20;;;;;;;3.20;1.13;;;10.00;98.00;;;;;;5077999;28;20032;-71
2022/12/21 10:44:50;;;;;;;4.43;1.42;;;10.10;98.00;;;;;;5058080;28;20349;-71
2022/12/21 10:47:19;;;;;;;1.65;0.90;;;10.10;98.00;;;;;;5066556;28;20465;-71
2022/12/21 10:50:10;;;;;;;3.15;1.92;;;10.10;98.00;;;;;;5058005;28;20433;-71
2022/12/21 10:52:44;;;;;;;1.52;0.80;;;10.20;98.00;;;;;;5064174;28;20040;-71
2022/12/21 10:55:18;;;;;;;1.13;0.80;;;10.30;98.00;;;;;;5042010;28;20040;-71
2022/12/21 10:57:54;;;;;;;5.40;1.98;;;10.40;98.00;;;;;;5052760;28;20028;-71
2022/12/21 11:00:31;;;;;;;4.25;1.75;;;10.40;98.00;;;;;;5074410;28;20075;-70
2022/12/21 11:03:03;;;;;;;2.70;1.15;;;10.50;98.00;;;;;;5039572;28;20112;-70
2022/12/21 11:05:40;;;;;;;3.08;1.33;;;10.60;98.00;;;;;;5075008;28;20108;-71
2022/12/21 11:08:15;;;;;;;7.63;3.30;;;10.50;98.00;;;;;;5073805;28;20099;-71
2022/12/21 11:10:46;;;;;;;6.60;2.70;;;10.60;98.00;;;;;;5059648;28;20036;-71
2022/12/21 11:13:14;;;;;;;3.55;1.40;;;10.60;98.00;;;;;;5077356;28;20028;-70
2022/12/21 11:15:57;;;;;;;3.22;1.20;;;10.60;98.00;;;;;;5056470;28;20040;-70
2022/12/21 11:18:37;;;;;;;5.75;2.42;;;10.50;98.00;;;;;;5059089;28;20027;-71
2022/12/21 11:21:05;;;;;;;8.65;3.92;;;10.40;98.00;;;;;;5077937;28;20313;-71
2022/12/21 11:23:32;;;;;;;6.88;2.88;;;10.50;98.00;;;;;;5049373;28;20036;-71
2022/12/21 11:25:59;;;;;;;4.13;1.50;;;10.70;98.00;;;;;;5065476;28;20032;-70
2022/12/21 11:28:24;;;;;;;3.70;1.40;;;10.80;98.00;;;;;;5060027;28;20426;-70
2022/12/21 11:30:54;;;;;;;6.05;2.60;;;11.00;98.00;;;;;;5077270;28;20061;-70
2022/12/21 11:33:21;;;;;;;4.45;1.80;;;11.60;98.00;;;;;;5058908;28;20025;-71
2022/12/21 11:36:13;;;;;;;9.15;4.78;;;11.80;98.00;;;;;;5077662;28;20024;-70
2022/12/21 11:38:39;;;;;;;1.75;0.90;;;11.70;98.00;;;;;;5077515;28;20074;-70
2022/12/21 11:41:26;;;;;;;4.10;1.60;;;11.60;98.00;;;;;;5076516;28;20043;-70
2022/12/21 11:43:53;;;;;;;2.63;0.68;;;11.50;98.00;;;;;;5077426;28;20047;-71
2022/12/21 11:47:11;;;;;;;1.92;0.80;;;11.80;98.00;;;;;;5075937;28;20086;-71
2022/12/21 11:49:45;;;;;;;2.40;0.80;;;12.30;96.90;;;;;;5013709;28;20037;-71
2022/12/21 11:52:41;;;;;;;2.50;0.88;;;12.70;96.60;;;;;;5014461;28;20077;-71
2022/12/21 11:55:18;;;;;;;3.08;1.30;;;12.90;95.50;;;;;;5050138;28;20033;-71
2022/12/21 11:57:53;;;;;;;4.93;2.00;;;12.90;94.80;;;;;;5077540;28;20020;-71
2022/12/21 12:00:20;;;;;;;;;;;13.30;94.30;;;;;;5077806;28;20094;-71
2022/12/21 12:02:49;;;;;;;4.55;1.63;;;13.80;92.10;;;;;;5071102;28;19958;-70
2022/12/21 12:05:21;;;;;;;2.03;0.80;;;14.10;92.20;;;;;;5054334;28;20055;-71
2022/12/21 12:08:00;;;;;;;1.08;0.60;;;13.90;90.60;;;;;;5077051;28;20016;-71
2022/12/21 12:11:10;;;;;;;1.85;0.77;;;13.20;92.20;;;;;;5079377;28;20013;-71
2022/12/21 12:13:59;;;;;;;1.42;0.90;;;13.10;93.70;;;;;;4993740;28;20446;-70
2022/12/21 12:16:57;;;;;;;3.72;1.02;;;13.00;93.40;;;;;;5094985;28;20024;-70
2022/12/21 12:19:59;;;;;;;2.78;0.90;;;13.40;92.20;;;;;;5071327;28;20032;-71
2022/12/21 12:22:42;;;;;;;2.25;1.00;;;13.90;91.60;;;;;;5051590;28;20482;-70
2022/12/21 12:25:18;;;;;;;2.13;0.75;;;14.30;89.60;;;;;;5076985;28;20056;-71
2022/12/21 12:28:01;;;;;;;3.10;1.30;;;14.40;89.60;;;;;;5075421;28;20424;-71
2022/12/21 12:30:53;;;;;;;3.25;1.15;;;14.30;89.60;;;;;;5058952;28;20039;-70
2022/12/21 12:33:37;;;;;;;2.60;1.02;;;14.40;89.10;;;;;;5056994;28;20317;-71
2022/12/21 12:36:24;;;;;;;2.60;1.10;;;14.20;88.80;;;;;;5056494;28;20328;-71
2022/12/21 12:39:19;;;;;;;3.22;1.20;;;14.00;89.50;;;;;;5056664;28;20287;-70
2022/12/21 12:41:52;;;;;;;5.15;2.15;;;13.90;90.20;;;;;;5057791;28;20287;-70
2022/12/21 12:44:27;;;;;;;3.10;1.40;;;14.40;90.50;;;;;;5038622;28;20136;-70
2022/12/21 12:47:18;;;;;;;4.13;1.42;;;14.60;88.50;;;;;;5070624;28;20025;-69
2022/12/21 12:49:55;;;;;;;2.08;0.90;;;14.40;88.10;;;;;;5028811;28;20043;-70
2022/12/21 12:53:01;;;;;;;3.97;1.85;;;14.20;88.80;;;;;;5054094;28;20452;-69
2022/12/21 12:55:39;;;;;;;4.20;1.40;;;13.70;89.70;;;;;;5072946;28;20112;-70
2022/12/21 12:58:30;;;;;;;3.63;1.60;;;12.90;91.80;;;;;;5064968;28;20061;-71
2022/12/21 13:00:56;;;;;;;9.25;4.60;;;12.50;93.30;;;;;;5056286;28;20414;-71
2022/12/21 13:03:30;;;;;;;6.65;3.10;;;12.30;94.70;;;;;;5074826;28;20032;-70
2022/12/21 13:06:33;;;;;;;5.47;2.13;;;12.20;95.00;;;;;;5076090;28;20032;-71
2022/12/21 13:09:16;;;;;;;5.30;2.03;;;12.20;94.90;;;;;;5075974;28;20028;-70
2022/12/21 13:11:45;;;;;;;4.07;1.85;;;12.10;94.10;;;;;;5075717;28;20036;-70
2022/12/21 13:14:36;;;;;;;4.47;2.03;;;11.90;94.70;;;;;;5075228;28;20089;-70
2022/12/21 13:17:26;;;;;;;4.28;2.00;;;11.90;95.00;;;;;;5058156;28;20025;-70
2022/12/21 13:19:53;;;;;;;6.10;3.00;;;12.00;94.90;;;;;;5056832;28;20352;-70
2022/12/21 13:22:21;;;;;;;3.55;1.77;;;12.30;94.50;;;;;;5058038;28;20033;-70
2022/12/21 13:24:58;;;;;;;3.03;1.30;;;12.40;93.70;;;;;;5075797;28;20313;-70
2022/12/21 13:27:37;;;;;;;3.80;1.30;;;12.20;94.20;;;;;;5057914;28;20162;-70
2022/12/21 13:30:16;;;;;;;4.07;1.90;;;12.40;93.60;;;;;;5071907;28;20039;-70
2022/12/21 13:32:53;;;;;;;2.92;1.33;;;12.70;92.80;;;;;;5057938;28;20086;-69